Freeport, Florida
Current Conditions -  °F | °C
As of 2:55 PM on Thursday 23 Oct 2014 (Local Time) from K54J Reporting Station
Clear Clear  
Wind Chill: 73°   Ceiling: Unl
Heat Index: 73°   Visibility: 10mi
Dew Point: 42°   Wind: 3mph
Humidity: 32%   Direction: 20°NNE
Pressure: 30.03"   Gusts: NA
Location:  30.5°N, 86.14°W
Report Text: K54J 231955Z AUTO 02003KT 10SM CLR 23/05 A3003 RMK AO2 T02270053
Loading
Personal Weather Stations






























Interactive Weather Map
Tropical Storm Tracking
New forecast layout! Learn more

10-Day Weather Forecast

Advertisements
Track Severe Weather on mobile